Thierry Duvaldestin

Thierry Duvaldestin

Statistiques 2018

  • Courses courues : 192
  • Nb de victoires : 37
  • Nb de places : 80
  • Écart gagnant : 5
  • Réussite à la gagne : 19%
  • Réussite à la place : 42%
Musique : 5a 0a 5a Da 4a 1a Da 2a 2a 8a 3a 0a 2a 1a 2a 8a 9a 3a
DateRangCatégorieAlloc.Dist.HippodromeChevalRed. KmSpé.
15/12/18 5 Trot 37 000€ 2 100m Vincennes First Destin 1'15"7 Attelé lire

Longtemps en retrait, a terminé de très belle manière en roue libre.

15/12/18 0 Trot 60 000€ 2 850m Vincennes Etincelle Destinee Attelé lire

N'a joué aucun rôle utile.

10/12/18 5 Trot 37 000€ 2 700m Vincennes Fun Destinee 1'17"5 Attelé lire

Attentiste en retrait, a comblé du terrain pour finir mais sans menacer les premières.

09/12/18 D Trot 12 000€ 2 225m Laval Goldavila Attelé
07/12/18 4 Trot 19 000€ 2 800m Chartres Falco de Vandel 1'19"7 Attelé
07/12/18 1 Trot 14 000€ 2 800m Chartres Glorioso Bello 1'20"3 Attelé
06/12/18 D Trot 36 000€ 2 850m Vincennes Full Aux Rois Attelé lire

Mal parti, a été sanctionné au début de la ligne opposée.

26/11/18 2 Trot 23 000€ 2 750m Cabourg Franklin Star 1'17"1 Attelé
26/11/18 2 Trot 27 000€ 2 050m Cabourg Escale Oceane 1'14"4 Attelé
20/11/18 8 Trot 33 000€ 2 200m Vincennes Gloranie des Noes 1'18"1 Attelé lire

A figuré au sein du peloton, sans pouvoir changer de rythme dans la phase finale.

16/11/18 3 Trot 35 000€ 2 100m Vincennes Full Aux Rois 1'15"6 Attelé lire

Après avoir figuré au sein du peloton, a terminé fort honorablement.

16/11/18 0 Trot 52 000€ 2 100m Vincennes Cho Oyu Vedaquais Attelé lire

Principal animateur, a cédé dans le tournant final.

12/11/18 2 Trot 30 000€ 3 025m Nantes Valfleury 1'14"0 Attelé
04/11/18 1 Trot 22 000€ 3 325m Chartres Cho Oyu Vedaquais Attelé
03/11/18 2 Trot 22 000€ 2 650m La Rochelle Diego de Cahot 1'16"5 Attelé
02/11/18 8 Trot 36 000€ 2 850m Vincennes Faon du Vivier 1'16"4 Attelé lire

Un des animateurs, a nettement marqué le pas pour finir.

01/11/18 9 Trot 28 000€ 2 650m Cherbourg Capella du Vivier 1'15"9 Attelé
01/11/18 3 Trot 13 000€ 2 625m Cherbourg Forever Isques 1'18"7 Attelé
01/11/18 1 Trot 13 000€ 2 625m Cherbourg Gloranie des Noes 1'18"5 Attelé
28/10/18 5 Trot 35 000€ 2 675m Bordeaux Le Bouscat Chicago Blues 1'15"7 Attelé
28/10/18 5 Trot 13 000€ 2 650m Bordeaux Le Bouscat Erlando Roc 1'17"2 Attelé
28/10/18 2 Trot 13 000€ 2 675m Bordeaux Le Bouscat Eliot du Coudrai 1'18"3 Attelé
28/10/18 7 Trot 15 000€ 2 675m Bordeaux Le Bouscat Full Aux Rois 1'17"8 Attelé
25/10/18 8 Trot 15 000€ 2 050m Cabourg Gringo du Noyer 1'17"5 Attelé
16/10/18 4 Trot 21 000€ 2 850m Mauquenchy Franklin Star 1'17"9 Attelé
14/10/18 1 Mixte 21 000€ 2 725m Segre Cho Oyu Vedaquais 1'19"9 Attelé
13/10/18 3 Trot 14 000€ 2 050m Cabourg Gringo du Noyer 1'16"0 Attelé
12/10/18 6 Trot 39 000€ 2 100m Vincennes Ecu du Vivier 1'15"2 Attelé lire

A rejoint les animateurs aux tribunes, se défendant bien jusqu'au bout.

23/09/18 0 Trot 25 000€ 2 700m Le Mont Saint Michel Crystal Wic Attelé
23/09/18 8 Trot 15 000€ 2 700m Le Mont Saint Michel Dazio Best 1'19"1 Attelé
23/09/18 4 Trot 13 000€ 2 050m Le Mont Saint Michel Giga Pearl 1'22"3 Attelé
23/09/18 D Trot 13 000€ 2 675m Le Mont Saint Michel Farho de Kergollot Attelé
23/09/18 4 Trot 13 000€ 2 675m Le Mont Saint Michel Funny d'heripre 1'21"5 Attelé
22/09/18 1 Mixte 13 000€ 2 725m Vitre Fiorentino Attelé
22/09/18 1 Mixte 32 000€ 3 225m Vitre Cho Oyu Vedaquais Attelé
20/09/18 7 Trot 22 000€ 2 725m Lyon La Soie Etincelle Destinee 1'16"7 Attelé
20/09/18 3 Trot 22 000€ 2 725m Lyon La Soie Beautiful du Fosse 1'14"3 Attelé
20/09/18 D Trot 21 000€ 2 725m Lyon La Soie Donato Pierji Attelé
20/09/18 D Trot 23 000€ 2 650m Lyon La Soie Avenir Classique Attelé
20/09/18 4 Trot 32 000€ 2 725m Lyon La Soie Boy Dancer 1'14"7 Attelé
16/09/18 6 Trot 15 000€ 2 750m Ecommoy Express de Tillard 1'20"0 Attelé
16/09/18 D Trot 13 000€ 2 750m Ecommoy Free Destin Attelé
16/09/18 5 Trot 16 000€ 2 775m Ecommoy Coq de l'Inam 1'18"0 Attelé
16/09/18 D Trot 11 000€ 2 225m Ecommoy Gringo du Noyer Attelé
15/09/18 9 Trot 65 000€ 2 700m Vincennes Fleuron du Goutier 1'15"1 Attelé lire

Vite aux premiers rangs, a nettement faibli pour finir.

10/09/18 D Trot 12 000€ 2 450m Caen Famous Wind Attelé
09/09/18 3 Trot 22 000€ 2 800m Argentan Full Aux Rois 1'17"4 Attelé
09/09/18 0 Trot 30 000€ 2 825m Bernay Astor de Rozoy Attelé
09/09/18 1 Trot 12 000€ 2 800m Bernay Galipette Pierji TNC Attelé
08/09/18 0 Trot 10 000€ 3 125m Nort Sur Erdre Vipiteno Attelé